sensor_id;sensor_type;location;lat;lon;timestamp;P1;durP1;ratioP1;P2;durP2;ratioP2
31798;SDS011;18374;51.136;3.502;2023-10-13T00:00:51;2.55;;;1.75;;
31798;SDS011;18374;51.136;3.502;2023-10-13T00:03:24;1.80;;;0.93;;
31798;SDS011;18374;51.136;3.502;2023-10-13T00:05:58;2.72;;;1.40;;
31798;SDS011;18374;51.136;3.502;2023-10-13T00:08:30;4.47;;;1.42;;
31798;SDS011;18374;51.136;3.502;2023-10-13T00:10:58;3.25;;;1.90;;
31798;SDS011;18374;51.136;3.502;2023-10-13T00:13:29;2.33;;;1.30;;
31798;SDS011;18374;51.136;3.502;2023-10-13T00:16:10;1.60;;;1.27;;
31798;SDS011;18374;51.136;3.502;2023-10-13T00:18:44;1.80;;;1.40;;
31798;SDS011;18374;51.136;3.502;2023-10-13T00:21:13;1.30;;;1.13;;
31798;SDS011;18374;51.136;3.502;2023-10-13T00:24:02;3.30;;;1.60;;
31798;SDS011;18374;51.136;3.502;2023-10-13T00:26:33;3.95;;;1.23;;
31798;SDS011;18374;51.136;3.502;2023-10-13T00:29:03;3.00;;;1.73;;
31798;SDS011;18374;51.136;3.502;2023-10-13T00:31:39;4.65;;;1.38;;
31798;SDS011;18374;51.136;3.502;2023-10-13T00:34:12;1.38;;;1.27;;
31798;SDS011;18374;51.136;3.502;2023-10-13T00:36:56;6.30;;;1.58;;
31798;SDS011;18374;51.136;3.502;2023-10-13T00:39:44;4.85;;;1.83;;
31798;SDS011;18374;51.136;3.502;2023-10-13T00:42:13;1.88;;;1.40;;
31798;SDS011;18374;51.136;3.502;2023-10-13T00:44:46;1.90;;;1.15;;
31798;SDS011;18374;51.136;3.502;2023-10-13T00:47:21;2.00;;;1.50;;
31798;SDS011;18374;51.136;3.502;2023-10-13T00:50:10;2.03;;;1.20;;
31798;SDS011;18374;51.136;3.502;2023-10-13T00:52:42;5.75;;;2.10;;
31798;SDS011;18374;51.136;3.502;2023-10-13T00:55:13;4.28;;;1.58;;
31798;SDS011;18374;51.136;3.502;2023-10-13T00:57:44;5.45;;;2.10;;
31798;SDS011;18374;51.136;3.502;2023-10-13T01:00:14;2.15;;;1.45;;
31798;SDS011;18374;51.136;3.502;2023-10-13T01:02:55;2.58;;;1.70;;
31798;SDS011;18374;51.136;3.502;2023-10-13T01:05:24;2.83;;;1.70;;
31798;SDS011;18374;51.136;3.502;2023-10-13T01:07:53;3.15;;;1.40;;
31798;SDS011;18374;51.136;3.502;2023-10-13T01:10:28;7.13;;;1.45;;
31798;SDS011;18374;51.136;3.502;2023-10-13T01:12:59;2.67;;;2.10;;
31798;SDS011;18374;51.136;3.502;2023-10-13T01:15:31;2.00;;;1.50;;
31798;SDS011;18374;51.136;3.502;2023-10-13T01:18:07;2.80;;;1.60;;
31798;SDS011;18374;51.136;3.502;2023-10-13T01:20:43;4.18;;;2.20;;
31798;SDS011;18374;51.136;3.502;2023-10-13T01:23:19;3.65;;;1.60;;
31798;SDS011;18374;51.136;3.502;2023-10-13T01:25:51;2.35;;;1.98;;
31798;SDS011;18374;51.136;3.502;2023-10-13T01:28:20;1.85;;;1.50;;
31798;SDS011;18374;51.136;3.502;2023-10-13T01:30:49;4.07;;;1.83;;
31798;SDS011;18374;51.136;3.502;2023-10-13T01:33:18;2.40;;;1.40;;
31798;SDS011;18374;51.136;3.502;2023-10-13T01:35:56;3.65;;;1.95;;
31798;SDS011;18374;51.136;3.502;2023-10-13T01:38:26;4.93;;;2.03;;
31798;SDS011;18374;51.136;3.502;2023-10-13T01:40:55;3.40;;;2.20;;
31798;SDS011;18374;51.136;3.502;2023-10-13T01:43:25;3.20;;;1.60;;
31798;SDS011;18374;51.136;3.502;2023-10-13T01:45:53;2.45;;;1.40;;
31798;SDS011;18374;51.136;3.502;2023-10-13T01:48:22;13.07;;;2.22;;
31798;SDS011;18374;51.136;3.502;2023-10-13T01:50:50;5.47;;;1.50;;
31798;SDS011;18374;51.136;3.502;2023-10-13T01:53:26;2.97;;;1.70;;
31798;SDS011;18374;51.136;3.502;2023-10-13T01:55:55;5.82;;;2.22;;
31798;SDS011;18374;51.136;3.502;2023-10-13T01:58:32;3.72;;;1.73;;
31798;SDS011;18374;51.136;3.502;2023-10-13T02:01:01;2.45;;;1.58;;
31798;SDS011;18374;51.136;3.502;2023-10-13T02:03:34;5.30;;;1.73;;
31798;SDS011;18374;51.136;3.502;2023-10-13T02:06:08;4.57;;;1.55;;
31798;SDS011;18374;51.136;3.502;2023-10-13T02:08:38;3.00;;;2.05;;
31798;SDS011;18374;51.136;3.502;2023-10-13T02:11:07;2.83;;;1.50;;
31798;SDS011;18374;51.136;3.502;2023-10-13T02:13:37;3.78;;;1.42;;
31798;SDS011;18374;51.136;3.502;2023-10-13T02:16:15;1.98;;;1.40;;
31798;SDS011;18374;51.136;3.502;2023-10-13T02:18:46;4.47;;;1.50;;
31798;SDS011;18374;51.136;3.502;2023-10-13T02:21:18;2.28;;;1.27;;
31798;SDS011;18374;51.136;3.502;2023-10-13T02:23:46;2.20;;;1.48;;
31798;SDS011;18374;51.136;3.502;2023-10-13T02:26:28;2.17;;;1.50;;
31798;SDS011;18374;51.136;3.502;2023-10-13T02:28:59;3.58;;;2.08;;
31798;SDS011;18374;51.136;3.502;2023-10-13T02:31:34;2.63;;;1.95;;
31798;SDS011;18374;51.136;3.502;2023-10-13T02:34:04;4.95;;;2.05;;
31798;SDS011;18374;51.136;3.502;2023-10-13T02:36:36;4.25;;;2.35;;
31798;SDS011;18374;51.136;3.502;2023-10-13T02:39:17;7.35;;;3.30;;
31798;SDS011;18374;51.136;3.502;2023-10-13T02:41:54;8.23;;;3.88;;
31798;SDS011;18374;51.136;3.502;2023-10-13T02:44:22;9.18;;;4.65;;
31798;SDS011;18374;51.136;3.502;2023-10-13T02:46:55;7.57;;;3.88;;
31798;SDS011;18374;51.136;3.502;2023-10-13T02:49:27;8.48;;;4.18;;
31798;SDS011;18374;51.136;3.502;2023-10-13T02:52:01;7.38;;;4.65;;
31798;SDS011;18374;51.136;3.502;2023-10-13T02:54:32;10.27;;;4.43;;
31798;SDS011;18374;51.136;3.502;2023-10-13T02:57:06;9.63;;;4.78;;
31798;SDS011;18374;51.136;3.502;2023-10-13T02:59:34;9.57;;;5.60;;
31798;SDS011;18374;51.136;3.502;2023-10-13T03:02:14;8.88;;;5.10;;
31798;SDS011;18374;51.136;3.502;2023-10-13T03:04:57;8.52;;;5.10;;
31798;SDS011;18374;51.136;3.502;2023-10-13T03:07:36;13.07;;;5.28;;
31798;SDS011;18374;51.136;3.502;2023-10-13T03:10:04;10.55;;;5.75;;
31798;SDS011;18374;51.136;3.502;2023-10-13T03:12:39;8.55;;;4.43;;
31798;SDS011;18374;51.136;3.502;2023-10-13T03:15:08;10.82;;;4.93;;
31798;SDS011;18374;51.136;3.502;2023-10-13T03:17:47;8.68;;;4.75;;
31798;SDS011;18374;51.136;3.502;2023-10-13T03:20:16;10.80;;;5.50;;
31798;SDS011;18374;51.136;3.502;2023-10-13T03:22:54;11.02;;;4.53;;
31798;SDS011;18374;51.136;3.502;2023-10-13T03:25:22;7.80;;;5.28;;
31798;SDS011;18374;51.136;3.502;2023-10-13T03:27:56;11.30;;;5.15;;
31798;SDS011;18374;51.136;3.502;2023-10-13T03:30:28;9.95;;;5.35;;
31798;SDS011;18374;51.136;3.502;2023-10-13T03:33:03;5.77;;;3.40;;
31798;SDS011;18374;51.136;3.502;2023-10-13T03:35:37;5.65;;;3.70;;
31798;SDS011;18374;51.136;3.502;2023-10-13T03:38:09;5.43;;;3.50;;
31798;SDS011;18374;51.136;3.502;2023-10-13T03:40:45;5.63;;;3.00;;
31798;SDS011;18374;51.136;3.502;2023-10-13T03:43:45;9.38;;;3.33;;
31798;SDS011;18374;51.136;3.502;2023-10-13T03:46:18;4.55;;;2.97;;
31798;SDS011;18374;51.136;3.502;2023-10-13T03:48:49;5.38;;;3.22;;
31798;SDS011;18374;51.136;3.502;2023-10-13T03:51:28;3.88;;;2.90;;
31798;SDS011;18374;51.136;3.502;2023-10-13T03:54:00;4.25;;;2.67;;
31798;SDS011;18374;51.136;3.502;2023-10-13T03:56:35;3.42;;;2.60;;
31798;SDS011;18374;51.136;3.502;2023-10-13T03:59:08;3.78;;;2.55;;
31798;SDS011;18374;51.136;3.502;2023-10-13T04:01:37;4.72;;;2.78;;
31798;SDS011;18374;51.136;3.502;2023-10-13T04:04:15;6.63;;;3.15;;
31798;SDS011;18374;51.136;3.502;2023-10-13T04:07:22;6.85;;;3.38;;
31798;SDS011;18374;51.136;3.502;2023-10-13T04:09:53;3.67;;;2.67;;
31798;SDS011;18374;51.136;3.502;2023-10-13T04:12:56;5.38;;;3.03;;
31798;SDS011;18374;51.136;3.502;2023-10-13T04:18:30;4.70;;;3.22;;
31798;SDS011;18374;51.136;3.502;2023-10-13T04:21:14;9.40;;;3.55;;
31798;SDS011;18374;51.136;3.502;2023-10-13T04:24:02;6.72;;;3.30;;
31798;SDS011;18374;51.136;3.502;2023-10-13T04:26:47;5.97;;;3.22;;
31798;SDS011;18374;51.136;3.502;2023-10-13T04:29:35;7.32;;;3.38;;
31798;SDS011;18374;51.136;3.502;2023-10-13T04:32:15;5.55;;;3.58;;
31798;SDS011;18374;51.136;3.502;2023-10-13T04:34:56;5.43;;;3.13;;
31798;SDS011;18374;51.136;3.502;2023-10-13T04:37:57;5.25;;;2.88;;
31798;SDS011;18374;51.136;3.502;2023-10-13T04:40:28;6.70;;;3.85;;
31798;SDS011;18374;51.136;3.502;2023-10-13T04:43:02;6.75;;;3.50;;
31798;SDS011;18374;51.136;3.502;2023-10-13T04:45:43;6.55;;;3.45;;
31798;SDS011;18374;51.136;3.502;2023-10-13T04:48:21;6.05;;;3.03;;
31798;SDS011;18374;51.136;3.502;2023-10-13T04:50:50;5.75;;;3.65;;
31798;SDS011;18374;51.136;3.502;2023-10-13T04:53:20;6.32;;;3.15;;
31798;SDS011;18374;51.136;3.502;2023-10-13T04:56:01;9.55;;;4.38;;
31798;SDS011;18374;51.136;3.502;2023-10-13T04:58:29;4.55;;;3.20;;
31798;SDS011;18374;51.136;3.502;2023-10-13T05:01:03;6.38;;;3.10;;
31798;SDS011;18374;51.136;3.502;2023-10-13T05:03:50;4.13;;;3.05;;
31798;SDS011;18374;51.136;3.502;2023-10-13T05:06:48;9.55;;;3.00;;
31798;SDS011;18374;51.136;3.502;2023-10-13T05:09:35;6.88;;;3.42;;
31798;SDS011;18374;51.136;3.502;2023-10-13T05:12:22;5.03;;;3.42;;
31798;SDS011;18374;51.136;3.502;2023-10-13T05:15:09;7.90;;;3.40;;
31798;SDS011;18374;51.136;3.502;2023-10-13T05:17:55;5.07;;;3.10;;
31798;SDS011;18374;51.136;3.502;2023-10-13T05:20:42;5.07;;;2.65;;
31798;SDS011;18374;51.136;3.502;2023-10-13T05:23:28;4.07;;;2.70;;
31798;SDS011;18374;51.136;3.502;2023-10-13T05:26:15;5.38;;;3.47;;
31798;SDS011;18374;51.136;3.502;2023-10-13T05:29:02;6.85;;;3.45;;
31798;SDS011;18374;51.136;3.502;2023-10-13T05:31:55;4.22;;;3.00;;
31798;SDS011;18374;51.136;3.502;2023-10-13T05:34:42;8.98;;;3.53;;
31798;SDS011;18374;51.136;3.502;2023-10-13T05:37:28;10.02;;;2.83;;
31798;SDS011;18374;51.136;3.502;2023-10-13T05:40:15;5.22;;;3.35;;
31798;SDS011;18374;51.136;3.502;2023-10-13T05:43:02;9.23;;;3.55;;
31798;SDS011;18374;51.136;3.502;2023-10-13T05:45:48;4.82;;;3.00;;
31798;SDS011;18374;51.136;3.502;2023-10-13T05:48:36;8.05;;;3.83;;
31798;SDS011;18374;51.136;3.502;2023-10-13T05:51:30;5.65;;;3.15;;
31798;SDS011;18374;51.136;3.502;2023-10-13T05:54:14;5.75;;;3.75;;
31798;SDS011;18374;51.136;3.502;2023-10-13T05:56:46;8.23;;;2.72;;
31798;SDS011;18374;51.136;3.502;2023-10-13T05:59:35;5.10;;;2.97;;
31798;SDS011;18374;51.136;3.502;2023-10-13T06:02:22;6.57;;;3.05;;
31798;SDS011;18374;51.136;3.502;2023-10-13T06:05:10;5.95;;;2.80;;
31798;SDS011;18374;51.136;3.502;2023-10-13T06:07:58;4.28;;;2.53;;
31798;SDS011;18374;51.136;3.502;2023-10-13T06:10:44;7.65;;;3.38;;
31798;SDS011;18374;51.136;3.502;2023-10-13T06:13:33;7.93;;;2.88;;
31798;SDS011;18374;51.136;3.502;2023-10-13T06:16:20;7.05;;;3.47;;
31798;SDS011;18374;51.136;3.502;2023-10-13T06:19:07;8.68;;;3.10;;
31798;SDS011;18374;51.136;3.502;2023-10-13T06:21:53;5.88;;;3.58;;
31798;SDS011;18374;51.136;3.502;2023-10-13T06:24:40;10.68;;;3.40;;
31798;SDS011;18374;51.136;3.502;2023-10-13T06:27:26;4.88;;;2.88;;
31798;SDS011;18374;51.136;3.502;2023-10-13T06:30:13;12.50;;;3.50;;
31798;SDS011;18374;51.136;3.502;2023-10-13T06:32:41;7.95;;;3.30;;
31798;SDS011;18374;51.136;3.502;2023-10-13T06:35:09;6.63;;;3.78;;
31798;SDS011;18374;51.136;3.502;2023-10-13T06:37:50;7.75;;;2.83;;
31798;SDS011;18374;51.136;3.502;2023-10-13T06:40:19;12.68;;;3.47;;
31798;SDS011;18374;51.136;3.502;2023-10-13T06:42:54;8.60;;;2.80;;
31798;SDS011;18374;51.136;3.502;2023-10-13T06:45:41;7.78;;;3.97;;
31798;SDS011;18374;51.136;3.502;2023-10-13T06:48:11;8.25;;;3.15;;
31798;SDS011;18374;51.136;3.502;2023-10-13T06:50:47;7.95;;;3.33;;
31798;SDS011;18374;51.136;3.502;2023-10-13T06:53:16;8.73;;;2.92;;
31798;SDS011;18374;51.136;3.502;2023-10-13T06:55:45;10.15;;;3.47;;
31798;SDS011;18374;51.136;3.502;2023-10-13T06:58:19;11.95;;;2.80;;
31798;SDS011;18374;51.136;3.502;2023-10-13T07:00:51;9.05;;;3.05;;
31798;SDS011;18374;51.136;3.502;2023-10-13T07:03:24;6.78;;;2.40;;
31798;SDS011;18374;51.136;3.502;2023-10-13T07:05:53;6.40;;;3.00;;
31798;SDS011;18374;51.136;3.502;2023-10-13T07:08:21;10.15;;;2.42;;
31798;SDS011;18374;51.136;3.502;2023-10-13T07:10:54;11.23;;;3.08;;
31798;SDS011;18374;51.136;3.502;2023-10-13T07:13:45;4.53;;;2.40;;
31798;SDS011;18374;51.136;3.502;2023-10-13T07:16:18;5.68;;;2.97;;
31798;SDS011;18374;51.136;3.502;2023-10-13T07:18:56;4.55;;;2.78;;
31798;SDS011;18374;51.136;3.502;2023-10-13T07:21:32;5.70;;;3.13;;
31798;SDS011;18374;51.136;3.502;2023-10-13T07:24:00;9.60;;;3.00;;
31798;SDS011;18374;51.136;3.502;2023-10-13T07:26:35;7.90;;;3.63;;
31798;SDS011;18374;51.136;3.502;2023-10-13T07:29:14;7.03;;;2.72;;
31798;SDS011;18374;51.136;3.502;2023-10-13T07:31:42;3.72;;;2.63;;
31798;SDS011;18374;51.136;3.502;2023-10-13T07:34:13;8.05;;;2.58;;
31798;SDS011;18374;51.136;3.502;2023-10-13T07:36:53;8.00;;;2.88;;
31798;SDS011;18374;51.136;3.502;2023-10-13T07:39:28;7.07;;;2.80;;
31798;SDS011;18374;51.136;3.502;2023-10-13T07:42:06;10.25;;;3.35;;
31798;SDS011;18374;51.136;3.502;2023-10-13T07:44:42;7.45;;;3.10;;
31798;SDS011;18374;51.136;3.502;2023-10-13T07:47:13;5.20;;;2.45;;
31798;SDS011;18374;51.136;3.502;2023-10-13T07:49:43;6.43;;;2.92;;
31798;SDS011;18374;51.136;3.502;2023-10-13T07:52:11;7.25;;;2.30;;
31798;SDS011;18374;51.136;3.502;2023-10-13T07:54:52;7.30;;;2.85;;
31798;SDS011;18374;51.136;3.502;2023-10-13T07:57:26;7.47;;;2.63;;
31798;SDS011;18374;51.136;3.502;2023-10-13T07:59:57;9.48;;;2.80;;
31798;SDS011;18374;51.136;3.502;2023-10-13T08:02:38;6.10;;;2.72;;
31798;SDS011;18374;51.136;3.502;2023-10-13T08:05:16;7.57;;;2.47;;
31798;SDS011;18374;51.136;3.502;2023-10-13T08:08:04;4.53;;;2.10;;
31798;SDS011;18374;51.136;3.502;2023-10-13T08:10:41;6.05;;;2.42;;
31798;SDS011;18374;51.136;3.502;2023-10-13T08:13:12;7.80;;;2.40;;
31798;SDS011;18374;51.136;3.502;2023-10-13T08:15:44;8.32;;;2.88;;
31798;SDS011;18374;51.136;3.502;2023-10-13T08:18:15;9.88;;;3.05;;
31798;SDS011;18374;51.136;3.502;2023-10-13T08:21:03;8.20;;;2.90;;
31798;SDS011;18374;51.136;3.502;2023-10-13T08:23:32;5.10;;;2.70;;
31798;SDS011;18374;51.136;3.502;2023-10-13T08:26:19;5.45;;;2.60;;
31798;SDS011;18374;51.136;3.502;2023-10-13T08:29:00;12.82;;;3.78;;
31798;SDS011;18374;51.136;3.502;2023-10-13T08:31:58;5.00;;;2.47;;
31798;SDS011;18374;51.136;3.502;2023-10-13T08:34:41;3.85;;;2.50;;
31798;SDS011;18374;51.136;3.502;2023-10-13T08:37:10;5.07;;;2.50;;
31798;SDS011;18374;51.136;3.502;2023-10-13T08:39:51;6.47;;;2.60;;
31798;SDS011;18374;51.136;3.502;2023-10-13T08:42:48;8.77;;;3.25;;
31798;SDS011;18374;51.136;3.502;2023-10-13T08:45:31;4.18;;;2.47;;
31798;SDS011;18374;51.136;3.502;2023-10-13T08:48:03;5.70;;;3.15;;
31798;SDS011;18374;51.136;3.502;2023-10-13T08:50:35;7.93;;;3.20;;
31798;SDS011;18374;51.136;3.502;2023-10-13T08:53:21;4.32;;;2.25;;
31798;SDS011;18374;51.136;3.502;2023-10-13T08:58:42;5.45;;;2.30;;
31798;SDS011;18374;51.136;3.502;2023-10-13T09:01:28;12.05;;;3.67;;
31798;SDS011;18374;51.136;3.502;2023-10-13T09:04:26;7.10;;;2.70;;
31798;SDS011;18374;51.136;3.502;2023-10-13T09:07:01;2.83;;;2.40;;
31798;SDS011;18374;51.136;3.502;2023-10-13T09:09:44;12.50;;;3.58;;
31798;SDS011;18374;51.136;3.502;2023-10-13T09:12:13;7.45;;;3.22;;
31798;SDS011;18374;51.136;3.502;2023-10-13T09:14:42;9.35;;;2.67;;
31798;SDS011;18374;51.136;3.502;2023-10-13T09:17:24;16.58;;;3.30;;
31798;SDS011;18374;51.136;3.502;2023-10-13T09:20:03;4.95;;;2.50;;
31798;SDS011;18374;51.136;3.502;2023-10-13T09:22:51;5.03;;;2.67;;
31798;SDS011;18374;51.136;3.502;2023-10-13T09:25:32;5.80;;;2.70;;
31798;SDS011;18374;51.136;3.502;2023-10-13T09:28:02;5.25;;;2.78;;
31798;SDS011;18374;51.136;3.502;2023-10-13T09:30:45;4.55;;;2.97;;
31798;SDS011;18374;51.136;3.502;2023-10-13T09:33:20;10.27;;;3.60;;
31798;SDS011;18374;51.136;3.502;2023-10-13T09:36:04;2.80;;;2.20;;
31798;SDS011;18374;51.136;3.502;2023-10-13T09:38:34;6.03;;;2.17;;
31798;SDS011;18374;51.136;3.502;2023-10-13T09:41:06;7.22;;;2.53;;
31798;SDS011;18374;51.136;3.502;2023-10-13T09:43:53;3.50;;;2.28;;
31798;SDS011;18374;51.136;3.502;2023-10-13T09:46:25;7.00;;;3.30;;
31798;SDS011;18374;51.136;3.502;2023-10-13T09:48:58;12.30;;;2.70;;
31798;SDS011;18374;51.136;3.502;2023-10-13T09:51:34;5.43;;;2.70;;
31798;SDS011;18374;51.136;3.502;2023-10-13T09:56:57;4.60;;;2.10;;
31798;SDS011;18374;51.136;3.502;2023-10-13T09:59:31;5.10;;;2.60;;
31798;SDS011;18374;51.136;3.502;2023-10-13T10:02:19;7.57;;;2.95;;
31798;SDS011;18374;51.136;3.502;2023-10-13T10:04:54;5.18;;;2.70;;
31798;SDS011;18374;51.136;3.502;2023-10-13T10:08:25;7.47;;;2.75;;
31798;SDS011;18374;51.136;3.502;2023-10-13T10:14:46;7.97;;;2.97;;
31798;SDS011;18374;51.136;3.502;2023-10-13T10:18:19;4.07;;;2.60;;
31798;SDS011;18374;51.136;3.502;2023-10-13T10:21:35;6.22;;;3.20;;
31798;SDS011;18374;51.136;3.502;2023-10-13T10:25:05;5.72;;;2.88;;
31798;SDS011;18374;51.136;3.502;2023-10-13T10:28:36;6.00;;;2.50;;
31798;SDS011;18374;51.136;3.502;2023-10-13T10:31:52;6.53;;;2.45;;
31798;SDS011;18374;51.136;3.502;2023-10-13T10:35:09;10.18;;;3.22;;
31798;SDS011;18374;51.136;3.502;2023-10-13T10:38:26;6.72;;;2.95;;
31798;SDS011;18374;51.136;3.502;2023-10-13T10:41:26;7.28;;;3.45;;
31798;SDS011;18374;51.136;3.502;2023-10-13T10:44:42;8.77;;;2.93;;
31798;SDS011;18374;51.136;3.502;2023-10-13T10:47:36;5.20;;;2.85;;
31798;SDS011;18374;51.136;3.502;2023-10-13T10:50:24;6.45;;;3.30;;
31798;SDS011;18374;51.136;3.502;2023-10-13T10:53:06;8.05;;;3.92;;
31798;SDS011;18374;51.136;3.502;2023-10-13T10:55:36;12.25;;;3.50;;
31798;SDS011;18374;51.136;3.502;2023-10-13T10:58:12;6.75;;;3.10;;
31798;SDS011;18374;51.136;3.502;2023-10-13T11:01:28;4.28;;;2.75;;
31798;SDS011;18374;51.136;3.502;2023-10-13T11:04:28;5.38;;;3.47;;
31798;SDS011;18374;51.136;3.502;2023-10-13T11:07:01;9.43;;;3.45;;
31798;SDS011;18374;51.136;3.502;2023-10-13T11:09:30;8.10;;;3.03;;
31798;SDS011;18374;51.136;3.502;2023-10-13T11:14:41;4.88;;;2.72;;
31798;SDS011;18374;51.136;3.502;2023-10-13T11:17:20;5.35;;;3.20;;
31798;SDS011;18374;51.136;3.502;2023-10-13T11:20:09;8.30;;;3.35;;
31798;SDS011;18374;51.136;3.502;2023-10-13T11:22:45;9.38;;;3.50;;
31798;SDS011;18374;51.136;3.502;2023-10-13T11:25:39;9.40;;;3.65;;
31798;SDS011;18374;51.136;3.502;2023-10-13T11:28:12;7.32;;;4.15;;
31798;SDS011;18374;51.136;3.502;2023-10-13T11:30:55;5.00;;;2.88;;
31798;SDS011;18374;51.136;3.502;2023-10-13T11:33:46;5.97;;;2.95;;
31798;SDS011;18374;51.136;3.502;2023-10-13T11:36:33;5.70;;;3.10;;
31798;SDS011;18374;51.136;3.502;2023-10-13T11:39:07;11.00;;;3.58;;
31798;SDS011;18374;51.136;3.502;2023-10-13T11:41:35;6.85;;;3.92;;
31798;SDS011;18374;51.136;3.502;2023-10-13T11:44:13;5.13;;;3.00;;
31798;SDS011;18374;51.136;3.502;2023-10-13T11:46:51;5.80;;;2.75;;
31798;SDS011;18374;51.136;3.502;2023-10-13T11:49:55;12.70;;;4.03;;
31798;SDS011;18374;51.136;3.502;2023-10-13T11:53:09;11.55;;;3.15;;
31798;SDS011;18374;51.136;3.502;2023-10-13T11:55:40;5.95;;;3.05;;
31798;SDS011;18374;51.136;3.502;2023-10-13T11:58:44;7.88;;;3.42;;
31798;SDS011;18374;51.136;3.502;2023-10-13T12:01:30;13.65;;;3.10;;
31798;SDS011;18374;51.136;3.502;2023-10-13T12:04:52;10.40;;;2.90;;
31798;SDS011;18374;51.136;3.502;2023-10-13T12:07:24;11.25;;;3.05;;
31798;SDS011;18374;51.136;3.502;2023-10-13T12:10:11;7.00;;;3.15;;
31798;SDS011;18374;51.136;3.502;2023-10-13T12:12:44;7.38;;;2.63;;
31798;SDS011;18374;51.136;3.502;2023-10-13T12:15:13;5.03;;;2.90;;
31798;SDS011;18374;51.136;3.502;2023-10-13T12:17:57;10.30;;;2.58;;
31798;SDS011;18374;51.136;3.502;2023-10-13T12:20:26;10.80;;;2.65;;
31798;SDS011;18374;51.136;3.502;2023-10-13T12:23:02;4.95;;;3.00;;
31798;SDS011;18374;51.136;3.502;2023-10-13T12:25:42;7.60;;;2.92;;
31798;SDS011;18374;51.136;3.502;2023-10-13T12:28:27;5.47;;;2.10;;
31798;SDS011;18374;51.136;3.502;2023-10-13T12:31:04;6.57;;;2.72;;
31798;SDS011;18374;51.136;3.502;2023-10-13T12:33:35;4.60;;;2.38;;
31798;SDS011;18374;51.136;3.502;2023-10-13T12:36:07;6.53;;;2.65;;
31798;SDS011;18374;51.136;3.502;2023-10-13T12:38:37;5.75;;;2.58;;
31798;SDS011;18374;51.136;3.502;2023-10-13T12:41:15;6.32;;;2.28;;
31798;SDS011;18374;51.136;3.502;2023-10-13T12:44:04;6.25;;;2.28;;
31798;SDS011;18374;51.136;3.502;2023-10-13T12:46:52;5.65;;;2.80;;
31798;SDS011;18374;51.136;3.502;2023-10-13T12:49:39;4.82;;;2.75;;
31798;SDS011;18374;51.136;3.502;2023-10-13T12:52:08;5.45;;;2.85;;
31798;SDS011;18374;51.136;3.502;2023-10-13T12:54:59;6.05;;;2.72;;
31798;SDS011;18374;51.136;3.502;2023-10-13T12:57:34;10.27;;;4.15;;
31798;SDS011;18374;51.136;3.502;2023-10-13T13:00:10;8.45;;;1.98;;
31798;SDS011;18374;51.136;3.502;2023-10-13T13:02:50;5.85;;;1.88;;
31798;SDS011;18374;51.136;3.502;2023-10-13T13:05:20;8.25;;;2.50;;
31798;SDS011;18374;51.136;3.502;2023-10-13T13:07:49;3.42;;;2.10;;
31798;SDS011;18374;51.136;3.502;2023-10-13T13:10:22;6.57;;;2.55;;
31798;SDS011;18374;51.136;3.502;2023-10-13T13:13:03;5.40;;;2.10;;
31798;SDS011;18374;51.136;3.502;2023-10-13T13:15:32;7.60;;;2.45;;
31798;SDS011;18374;51.136;3.502;2023-10-13T13:18:01;4.47;;;2.60;;
31798;SDS011;18374;51.136;3.502;2023-10-13T13:20:37;8.48;;;2.42;;
31798;SDS011;18374;51.136;3.502;2023-10-13T13:23:06;3.80;;;2.42;;
31798;SDS011;18374;51.136;3.502;2023-10-13T13:25:34;10.38;;;2.08;;
31798;SDS011;18374;51.136;3.502;2023-10-13T13:28:09;13.05;;;2.83;;
31798;SDS011;18374;51.136;3.502;2023-10-13T13:30:38;5.18;;;1.98;;
31798;SDS011;18374;51.136;3.502;2023-10-13T13:33:07;15.48;;;2.22;;
31798;SDS011;18374;51.136;3.502;2023-10-13T13:35:38;6.65;;;1.90;;
31798;SDS011;18374;51.136;3.502;2023-10-13T13:38:09;7.00;;;1.95;;
31798;SDS011;18374;51.136;3.502;2023-10-13T13:40:44;5.40;;;2.40;;
31798;SDS011;18374;51.136;3.502;2023-10-13T13:43:16;7.70;;;2.08;;
31798;SDS011;18374;51.136;3.502;2023-10-13T13:46:03;8.52;;;2.38;;
31798;SDS011;18374;51.136;3.502;2023-10-13T13:48:36;7.82;;;2.10;;
31798;SDS011;18374;51.136;3.502;2023-10-13T13:51:05;3.78;;;1.50;;
31798;SDS011;18374;51.136;3.502;2023-10-13T13:53:42;9.40;;;2.40;;
31798;SDS011;18374;51.136;3.502;2023-10-13T13:56:17;4.40;;;2.28;;
31798;SDS011;18374;51.136;3.502;2023-10-13T13:58:46;8.40;;;1.75;;
31798;SDS011;18374;51.136;3.502;2023-10-13T14:01:17;6.82;;;1.88;;
31798;SDS011;18374;51.136;3.502;2023-10-13T14:03:46;4.75;;;1.60;;
31798;SDS011;18374;51.136;3.502;2023-10-13T14:06:18;4.38;;;1.38;;
31798;SDS011;18374;51.136;3.502;2023-10-13T14:08:51;5.18;;;1.83;;
31798;SDS011;18374;51.136;3.502;2023-10-13T14:11:24;5.82;;;2.33;;
31798;SDS011;18374;51.136;3.502;2023-10-13T14:14:06;4.30;;;1.65;;
31798;SDS011;18374;51.136;3.502;2023-10-13T14:16:48;4.50;;;1.95;;
31798;SDS011;18374;51.136;3.502;2023-10-13T14:19:17;2.97;;;1.95;;
31798;SDS011;18374;51.136;3.502;2023-10-13T14:21:54;13.02;;;2.50;;
31798;SDS011;18374;51.136;3.502;2023-10-13T14:24:23;6.30;;;2.15;;
31798;SDS011;18374;51.136;3.502;2023-10-13T14:26:59;6.88;;;2.55;;
31798;SDS011;18374;51.136;3.502;2023-10-13T14:29:44;6.32;;;2.45;;
31798;SDS011;18374;51.136;3.502;2023-10-13T14:32:13;3.42;;;1.95;;
31798;SDS011;18374;51.136;3.502;2023-10-13T14:34:45;5.05;;;1.95;;
31798;SDS011;18374;51.136;3.502;2023-10-13T14:37:20;3.88;;;1.90;;
31798;SDS011;18374;51.136;3.502;2023-10-13T14:39:58;8.68;;;2.53;;
31798;SDS011;18374;51.136;3.502;2023-10-13T14:42:27;5.28;;;2.15;;
31798;SDS011;18374;51.136;3.502;2023-10-13T14:44:56;7.20;;;2.72;;
31798;SDS011;18374;51.136;3.502;2023-10-13T14:47:24;5.20;;;2.75;;
31798;SDS011;18374;51.136;3.502;2023-10-13T14:49:56;5.25;;;2.70;;
31798;SDS011;18374;51.136;3.502;2023-10-13T14:52:30;7.45;;;2.83;;
31798;SDS011;18374;51.136;3.502;2023-10-13T14:54:59;5.55;;;2.03;;
31798;SDS011;18374;51.136;3.502;2023-10-13T14:57:27;7.13;;;2.30;;
31798;SDS011;18374;51.136;3.502;2023-10-13T14:59:55;10.18;;;2.53;;
31798;SDS011;18374;51.136;3.502;2023-10-13T15:02:24;4.03;;;2.00;;
31798;SDS011;18374;51.136;3.502;2023-10-13T15:04:52;7.13;;;2.50;;
31798;SDS011;18374;51.136;3.502;2023-10-13T15:07:20;8.38;;;2.72;;
31798;SDS011;18374;51.136;3.502;2023-10-13T15:09:49;3.80;;;2.30;;
31798;SDS011;18374;51.136;3.502;2023-10-13T15:12:17;2.75;;;2.08;;
31798;SDS011;18374;51.136;3.502;2023-10-13T15:14:54;9.10;;;2.42;;
31798;SDS011;18374;51.136;3.502;2023-10-13T15:17:23;4.13;;;2.50;;
31798;SDS011;18374;51.136;3.502;2023-10-13T15:19:51;6.45;;;2.50;;
31798;SDS011;18374;51.136;3.502;2023-10-13T15:22:21;6.53;;;2.88;;
31798;SDS011;18374;51.136;3.502;2023-10-13T15:24:55;5.13;;;2.50;;
31798;SDS011;18374;51.136;3.502;2023-10-13T15:27:41;6.75;;;2.13;;
31798;SDS011;18374;51.136;3.502;2023-10-13T15:30:12;10.27;;;3.50;;
31798;SDS011;18374;51.136;3.502;2023-10-13T15:32:51;5.82;;;2.88;;
31798;SDS011;18374;51.136;3.502;2023-10-13T15:35:21;3.95;;;2.10;;
31798;SDS011;18374;51.136;3.502;2023-10-13T15:37:49;8.40;;;2.75;;
31798;SDS011;18374;51.136;3.502;2023-10-13T15:40:18;5.53;;;2.17;;
31798;SDS011;18374;51.136;3.502;2023-10-13T15:42:48;8.18;;;2.45;;
31798;SDS011;18374;51.136;3.502;2023-10-13T15:45:16;6.05;;;2.85;;
31798;SDS011;18374;51.136;3.502;2023-10-13T15:47:47;5.68;;;2.38;;
31798;SDS011;18374;51.136;3.502;2023-10-13T15:50:18;4.63;;;2.40;;
31798;SDS011;18374;51.136;3.502;2023-10-13T15:52:48;10.15;;;2.55;;
31798;SDS011;18374;51.136;3.502;2023-10-13T15:55:17;4.22;;;2.42;;
31798;SDS011;18374;51.136;3.502;2023-10-13T15:57:45;4.80;;;2.67;;
31798;SDS011;18374;51.136;3.502;2023-10-13T16:00:20;10.63;;;3.33;;
31798;SDS011;18374;51.136;3.502;2023-10-13T16:02:53;8.32;;;3.08;;
31798;SDS011;18374;51.136;3.502;2023-10-13T16:05:34;12.43;;;3.78;;